createdAt,value
2019-03-03T00:00:37.181Z,-2.27
2019-03-03T00:03:08.463Z,-2.27
2019-03-03T00:05:39.733Z,-2.14
2019-03-03T00:08:11.099Z,-2.19
2019-03-03T00:10:42.698Z,-2.16
2019-03-03T00:13:13.854Z,-2.10
2019-03-03T00:15:45.466Z,-2.33
2019-03-03T00:18:16.649Z,-2.33
2019-03-03T00:20:48.165Z,-2.28
2019-03-03T00:23:19.387Z,-2.17
2019-03-03T00:25:50.570Z,-2.16
2019-03-03T00:28:21.722Z,-2.16
2019-03-03T00:30:52.809Z,-2.23
2019-03-03T00:33:24.374Z,-2.23
2019-03-03T00:35:55.763Z,-2.35
2019-03-03T00:38:28.521Z,-2.35
2019-03-03T00:41:14.594Z,-2.37
2019-03-03T00:43:47.337Z,-2.46
2019-03-03T00:46:26.105Z,-2.34
2019-03-03T00:49:10.618Z,-2.32
2019-03-03T00:51:51.277Z,-2.25
2019-03-03T00:54:29.761Z,-2.25
2019-03-03T00:57:03.605Z,-2.21
2019-03-03T00:59:39.243Z,-2.17
2019-03-03T01:02:14.774Z,-2.18
2019-03-03T01:04:50.563Z,-2.25
2019-03-03T01:07:23.333Z,-2.22
2019-03-03T01:10:09.922Z,-2.21
2019-03-03T01:12:42.720Z,-2.21
2019-03-03T01:15:15.553Z,-2.17
2019-03-03T01:17:54.534Z,-2.21
2019-03-03T01:20:30.383Z,-2.23
2019-03-03T01:23:19.683Z,-2.19
2019-03-03T01:25:50.974Z,-2.23
2019-03-03T01:28:23.296Z,-2.29
2019-03-03T01:30:54.351Z,-2.21
2019-03-03T01:33:25.704Z,-2.23
2019-03-03T01:35:56.818Z,-2.22
2019-03-03T01:38:27.966Z,-2.18
2019-03-03T01:41:03.895Z,-2.22
2019-03-03T01:43:35.540Z,-2.23
2019-03-03T01:46:06.561Z,-2.23
2019-03-03T01:48:37.879Z,-2.19
2019-03-03T01:51:09.028Z,-2.08
2019-03-03T01:53:40.265Z,-2.08
2019-03-03T01:56:11.651Z,-1.97
2019-03-03T01:58:42.918Z,-2.15
2019-03-03T02:01:14.198Z,-2.23
2019-03-03T02:03:45.343Z,-2.30
2019-03-03T02:06:16.518Z,-2.35
2019-03-03T02:08:48.274Z,-2.35
2019-03-03T02:11:19.436Z,-2.44
2019-03-03T02:13:50.666Z,-2.42
2019-03-03T02:16:22.143Z,-2.41
2019-03-03T02:18:53.364Z,-2.48
2019-03-03T02:21:24.578Z,-2.48
2019-03-03T02:23:55.881Z,-2.47
2019-03-03T02:26:26.989Z,-2.47
2019-03-03T02:28:58.307Z,-2.52
2019-03-03T02:31:29.442Z,-2.52
2019-03-03T02:34:00.595Z,-2.46
2019-03-03T02:36:31.774Z,-2.42
2019-03-03T02:39:04.689Z,-2.50
2019-03-03T02:41:37.402Z,-2.49
2019-03-03T02:44:08.627Z,-2.47
2019-03-03T02:46:39.762Z,-2.62
2019-03-03T02:49:11.048Z,-2.66
2019-03-03T02:51:45.815Z,-2.66
2019-03-03T02:54:16.944Z,-2.79
2019-03-03T02:56:48.100Z,-2.76
2019-03-03T02:59:19.290Z,-2.80
2019-03-03T03:01:52.063Z,-2.88
2019-03-03T03:04:23.520Z,-2.88
2019-03-03T03:07:02.092Z,-2.91
2019-03-03T03:09:35.072Z,-3.03
2019-03-03T03:12:10.775Z,-2.96
2019-03-03T03:14:49.751Z,-2.94
2019-03-03T03:17:25.493Z,-2.96
2019-03-03T03:19:58.246Z,-3.04
2019-03-03T03:22:35.189Z,-2.96
2019-03-03T03:25:17.750Z,-3.06
2019-03-03T03:27:52.922Z,-2.97
2019-03-03T03:30:25.766Z,-3.01
2019-03-03T03:32:58.421Z,-3.06
2019-03-03T03:35:33.967Z,-3.06
2019-03-03T03:38:12.766Z,-3.03
2019-03-03T03:40:45.625Z,-3.11
2019-03-03T03:43:27.660Z,-3.12
2019-03-03T03:46:09.730Z,-3.16
2019-03-03T03:48:42.361Z,-3.15
2019-03-03T03:51:24.473Z,-3.08
2019-03-03T03:54:16.668Z,-3.14
2019-03-03T03:56:55.145Z,-3.13
2019-03-03T03:59:27.842Z,-3.11
2019-03-03T04:02:03.719Z,-3.20
2019-03-03T04:04:39.213Z,-3.34
2019-03-03T04:07:12.015Z,-3.27
2019-03-03T04:09:44.869Z,-3.34
2019-03-03T04:12:37.920Z,-3.31
2019-03-03T04:15:12.295Z,-3.35
2019-03-03T04:17:47.963Z,-3.34
2019-03-03T04:20:40.669Z,-3.36
2019-03-03T04:23:16.190Z,-3.41
2019-03-03T04:25:58.216Z,-3.47
2019-03-03T04:28:33.933Z,-3.50
2019-03-03T04:31:15.829Z,-3.45
2019-03-03T04:34:01.068Z,-3.53
2019-03-03T04:36:33.835Z,-3.66
2019-03-03T04:39:07.943Z,-3.64
2019-03-03T04:41:40.784Z,-3.61
2019-03-03T04:44:13.554Z,-3.63
2019-03-03T04:46:49.158Z,-3.66
2019-03-03T04:49:38.325Z,-3.59
2019-03-03T04:52:11.037Z,-3.59
2019-03-03T04:54:53.017Z,-3.59
2019-03-03T04:57:34.794Z,-3.65
2019-03-03T05:00:29.189Z,-3.69
2019-03-03T05:03:04.878Z,-3.63
2019-03-03T05:05:53.593Z,-3.72
2019-03-03T05:08:26.268Z,-3.70
2019-03-03T05:11:04.832Z,-3.76
2019-03-03T05:13:40.455Z,-3.65
2019-03-03T05:16:29.505Z,-3.53
2019-03-03T05:19:02.199Z,-3.53
2019-03-03T05:21:34.484Z,-3.52
2019-03-03T05:24:05.595Z,-3.66
2019-03-03T05:26:36.809Z,-3.71
2019-03-03T05:29:07.898Z,-3.74
2019-03-03T05:31:39.137Z,-3.70
2019-03-03T05:34:12.187Z,-3.62
2019-03-03T05:36:43.508Z,-3.60
2019-03-03T05:39:14.584Z,-3.64
2019-03-03T05:41:45.835Z,-3.56
2019-03-03T05:44:16.980Z,-3.46
2019-03-03T05:46:48.563Z,-3.41
2019-03-03T05:49:21.004Z,-3.36
2019-03-03T05:51:52.254Z,-3.36
2019-03-03T05:54:24.397Z,-3.33
2019-03-03T05:56:55.673Z,-3.38
2019-03-03T05:59:28.140Z,-3.39
2019-03-03T06:01:59.337Z,-3.20
2019-03-03T06:04:30.488Z,-3.24
2019-03-03T06:07:01.562Z,-3.33
2019-03-03T06:09:32.866Z,-3.37
2019-03-03T06:12:03.893Z,-3.27
2019-03-03T06:14:35.001Z,-3.24
2019-03-03T06:17:11.571Z,-3.22
2019-03-03T06:19:42.860Z,-3.10
2019-03-03T06:22:14.004Z,-2.99
2019-03-03T06:24:45.240Z,-2.85
2019-03-03T06:27:16.814Z,-2.72
2019-03-03T06:29:48.118Z,-2.71
2019-03-03T06:32:19.288Z,-2.57
2019-03-03T06:34:50.775Z,-2.55
2019-03-03T06:37:22.153Z,-2.57
2019-03-03T06:39:53.389Z,-2.72
2019-03-03T06:42:24.630Z,-2.54
2019-03-03T06:44:55.686Z,-2.55
2019-03-03T06:47:26.964Z,-2.55
2019-03-03T06:49:58.051Z,-2.58
2019-03-03T06:52:29.167Z,-2.49
2019-03-03T06:55:00.245Z,-2.43
2019-03-03T06:57:31.610Z,-2.39
2019-03-03T07:00:02.961Z,-2.31
2019-03-03T07:02:35.199Z,-2.34
2019-03-03T07:05:08.207Z,-2.42
2019-03-03T07:07:39.512Z,-2.32
2019-03-03T07:10:13.243Z,-2.26
2019-03-03T07:12:44.350Z,-2.18
2019-03-03T07:15:16.852Z,-2.16
2019-03-03T07:17:47.980Z,-2.08
2019-03-03T07:20:19.092Z,-2.03
2019-03-03T07:22:50.456Z,-1.99
2019-03-03T07:25:22.686Z,-1.80
2019-03-03T07:27:54.295Z,-1.80
2019-03-03T07:30:25.486Z,-1.79
2019-03-03T07:33:04.343Z,-1.68
2019-03-03T07:35:35.790Z,-1.78
2019-03-03T07:38:07.286Z,-1.75
2019-03-03T07:40:38.409Z,-1.63
2019-03-03T07:43:09.607Z,-1.61
2019-03-03T07:45:42.854Z,-1.51
2019-03-03T07:48:14.111Z,-1.47
2019-03-03T07:50:45.248Z,-1.33
2019-03-03T07:53:16.310Z,-1.39
2019-03-03T07:55:47.571Z,-1.29
2019-03-03T07:58:19.874Z,-1.29
2019-03-03T08:00:51.889Z,-1.18
2019-03-03T08:03:23.250Z,-1.04
2019-03-03T08:05:54.257Z,-1.14
2019-03-03T08:08:25.636Z,-1.21
2019-03-03T08:10:56.953Z,-1.11
2019-03-03T08:13:28.212Z,-1.26
2019-03-03T08:16:01.479Z,-1.14
2019-03-03T08:18:32.818Z,-0.94
2019-03-03T08:21:03.991Z,-0.93
2019-03-03T08:23:35.209Z,-1.00
2019-03-03T08:26:06.379Z,-0.85
2019-03-03T08:28:37.551Z,-0.85
2019-03-03T08:31:08.810Z,-0.93
2019-03-03T08:33:40.098Z,-0.78
2019-03-03T08:36:11.156Z,-0.65
2019-03-03T08:38:42.511Z,-0.67
2019-03-03T08:41:14.282Z,-0.62
2019-03-03T08:43:47.101Z,-0.46
2019-03-03T08:46:34.721Z,-0.39
2019-03-03T08:49:10.184Z,-0.41
2019-03-03T08:51:54.745Z,-0.36
2019-03-03T08:54:27.552Z,-0.14
2019-03-03T08:57:00.343Z,-0.07
2019-03-03T08:59:36.500Z,-0.10
2019-03-03T09:02:12.325Z,-0.03
2019-03-03T09:04:54.522Z,0.09
2019-03-03T09:07:27.259Z,-0.03
2019-03-03T09:10:00.040Z,0.06
2019-03-03T09:12:34.109Z,0.09
2019-03-03T09:15:18.773Z,0.09
2019-03-03T09:18:01.022Z,0.01
2019-03-03T09:20:50.088Z,0.16
2019-03-03T09:23:40.687Z,0.25
2019-03-03T09:26:25.812Z,0.40
2019-03-03T09:29:07.538Z,0.47
2019-03-03T09:31:58.431Z,0.47
2019-03-03T09:34:31.592Z,0.41
2019-03-03T09:37:07.598Z,0.54
2019-03-03T09:39:50.122Z,0.64
2019-03-03T09:42:25.360Z,0.61
2019-03-03T09:45:07.120Z,0.74
2019-03-03T09:47:39.831Z,0.67
2019-03-03T09:50:15.896Z,0.63
2019-03-03T09:52:54.360Z,0.62
2019-03-03T09:55:27.310Z,0.62
2019-03-03T09:57:59.973Z,0.76
2019-03-03T10:00:35.476Z,0.76
2019-03-03T10:03:20.940Z,0.79
2019-03-03T10:06:07.587Z,0.93
2019-03-03T10:08:57.713Z,0.97
2019-03-03T10:11:35.916Z,1.07
2019-03-03T10:14:17.391Z,0.87
2019-03-03T10:17:04.490Z,1.11
2019-03-03T10:19:37.351Z,1.16
2019-03-03T10:22:13.132Z,1.06
2019-03-03T10:24:54.968Z,1.25
2019-03-03T10:27:33.881Z,1.21
2019-03-03T10:30:12.878Z,1.29
2019-03-03T10:32:48.850Z,1.34
2019-03-03T10:35:23.957Z,1.25
2019-03-03T10:38:05.768Z,1.25
2019-03-03T10:40:38.592Z,1.21
2019-03-03T10:43:12.536Z,1.34
2019-03-03T10:45:51.289Z,1.45
2019-03-03T10:48:31.957Z,1.33
2019-03-03T10:51:04.798Z,1.34
2019-03-03T10:53:40.516Z,1.28
2019-03-03T10:56:21.973Z,1.34
2019-03-03T10:59:03.358Z,1.57
2019-03-03T11:01:38.761Z,1.59
2019-03-03T11:04:26.630Z,1.76
2019-03-03T11:07:08.163Z,1.67
2019-03-03T11:09:53.108Z,1.69
2019-03-03T11:12:42.724Z,1.82
2019-03-03T11:15:28.373Z,1.73
2019-03-03T11:18:06.849Z,1.91
2019-03-03T11:20:42.630Z,1.90
2019-03-03T11:23:18.362Z,1.95
2019-03-03T11:26:01.048Z,1.99
2019-03-03T11:28:37.296Z,2.12
2019-03-03T11:31:10.155Z,2.09
2019-03-03T11:33:52.221Z,2.22
2019-03-03T11:36:31.621Z,2.20
2019-03-03T11:39:16.431Z,2.41
2019-03-03T11:42:01.522Z,2.66
2019-03-03T11:44:44.692Z,2.60
2019-03-03T11:47:23.748Z,2.56
2019-03-03T11:50:05.696Z,2.54
2019-03-03T11:52:52.204Z,2.64
2019-03-03T11:55:25.190Z,2.71
2019-03-03T11:58:01.076Z,2.73
2019-03-03T12:00:37.002Z,2.86
2019-03-03T12:03:15.749Z,2.77
2019-03-03T12:05:51.126Z,2.65
2019-03-03T12:08:29.505Z,2.81
2019-03-03T12:11:11.076Z,2.80
2019-03-03T12:13:43.882Z,3.00
2019-03-03T12:16:19.784Z,3.05
2019-03-03T12:18:55.754Z,3.12
2019-03-03T12:21:35.825Z,3.04
2019-03-03T12:24:09.103Z,2.88
2019-03-03T12:26:47.889Z,3.05
2019-03-03T12:29:38.263Z,3.08
2019-03-03T12:32:23.885Z,2.90
2019-03-03T12:35:12.458Z,3.01
2019-03-03T12:38:12.701Z,3.07
2019-03-03T12:40:48.449Z,3.12
2019-03-03T12:43:27.785Z,3.26
2019-03-03T12:46:02.280Z,3.25
2019-03-03T12:48:43.977Z,3.38
2019-03-03T12:51:16.666Z,3.21
2019-03-03T12:53:55.673Z,2.90
2019-03-03T12:56:37.734Z,2.94
2019-03-03T12:59:26.850Z,3.09
2019-03-03T13:01:59.691Z,3.23
2019-03-03T13:04:42.152Z,3.24
2019-03-03T13:07:15.926Z,3.46
2019-03-03T13:09:55.708Z,3.52
2019-03-03T13:12:31.588Z,3.43
2019-03-03T13:15:10.246Z,3.31
2019-03-03T13:17:48.154Z,3.19
2019-03-03T13:20:33.699Z,3.36
2019-03-03T13:23:12.686Z,3.57
2019-03-03T13:25:55.751Z,3.42
2019-03-03T13:28:40.537Z,3.42
2019-03-03T13:31:16.179Z,3.41
2019-03-03T13:33:52.284Z,3.39
2019-03-03T13:36:29.471Z,3.27
2019-03-03T13:39:17.552Z,3.26
2019-03-03T13:41:59.358Z,3.40
2019-03-03T13:44:31.220Z,3.26
2019-03-03T13:47:02.340Z,3.26
2019-03-03T13:49:33.573Z,3.38
2019-03-03T13:52:05.163Z,3.42
2019-03-03T13:54:36.337Z,3.47
2019-03-03T13:57:07.568Z,3.46
2019-03-03T13:59:38.569Z,3.40
2019-03-03T14:02:09.912Z,3.45
2019-03-03T14:04:40.984Z,3.56
2019-03-03T14:07:12.276Z,3.66
2019-03-03T14:09:44.443Z,3.59
2019-03-03T14:12:15.545Z,3.67
2019-03-03T14:14:46.774Z,3.81
2019-03-03T14:17:18.154Z,3.89
2019-03-03T14:19:50.097Z,3.63
2019-03-03T14:22:21.364Z,3.65
2019-03-03T14:24:52.675Z,3.43
2019-03-03T14:27:25.896Z,3.24
2019-03-03T14:29:58.183Z,3.21
2019-03-03T14:32:29.396Z,3.25
2019-03-03T14:35:02.436Z,3.24
2019-03-03T14:37:34.055Z,3.17
2019-03-03T14:40:14.745Z,3.13
2019-03-03T14:42:46.077Z,3.11
2019-03-03T14:45:18.717Z,3.05
2019-03-03T14:47:51.872Z,2.98
2019-03-03T14:50:23.545Z,2.96
2019-03-03T14:52:56.846Z,2.90
2019-03-03T14:55:28.612Z,2.87
2019-03-03T14:58:00.525Z,2.81
2019-03-03T15:00:34.243Z,2.76
2019-03-03T15:03:08.933Z,2.80
2019-03-03T15:05:41.583Z,2.76
2019-03-03T15:08:13.409Z,2.74
2019-03-03T15:10:45.388Z,2.70
2019-03-03T15:13:16.984Z,2.61
2019-03-03T15:15:48.425Z,2.61
2019-03-03T15:18:19.635Z,2.60
2019-03-03T15:20:50.765Z,2.58
2019-03-03T15:23:21.911Z,2.54
2019-03-03T15:25:53.179Z,2.49
2019-03-03T15:28:24.284Z,2.45
2019-03-03T15:30:55.427Z,2.48
2019-03-03T15:33:26.661Z,2.43
2019-03-03T15:35:57.826Z,2.44
2019-03-03T15:38:29.173Z,2.39
2019-03-03T15:41:00.369Z,2.35
2019-03-03T15:43:31.996Z,2.30
2019-03-03T15:46:03.098Z,2.30
2019-03-03T15:48:34.785Z,2.27
2019-03-03T15:51:05.991Z,2.24
2019-03-03T15:53:37.326Z,2.28
2019-03-03T15:56:08.523Z,2.27
2019-03-03T15:58:39.821Z,2.22
2019-03-03T16:01:13.900Z,2.18
2019-03-03T16:03:45.776Z,2.19
2019-03-03T16:06:16.910Z,2.17
2019-03-03T16:08:49.652Z,2.18
2019-03-03T16:11:20.784Z,2.17
2019-03-03T16:13:52.007Z,2.15
2019-03-03T16:16:23.126Z,2.06
2019-03-03T16:18:54.459Z,2.02
2019-03-03T16:21:26.651Z,2.04
2019-03-03T16:23:58.064Z,2.00
2019-03-03T16:26:29.437Z,2.04
2019-03-03T16:29:00.608Z,2.03
2019-03-03T16:31:35.373Z,1.96
2019-03-03T16:34:06.643Z,1.90
2019-03-03T16:36:37.885Z,1.95
2019-03-03T16:39:08.981Z,1.90
2019-03-03T16:41:41.977Z,1.87
2019-03-03T16:44:13.809Z,1.83
2019-03-03T16:46:44.970Z,1.78
2019-03-03T16:49:16.266Z,1.77
2019-03-03T16:51:48.580Z,1.80
2019-03-03T16:54:23.877Z,1.76
2019-03-03T16:56:55.004Z,1.78
2019-03-03T16:59:26.305Z,1.71
2019-03-03T17:01:57.660Z,1.74
2019-03-03T17:04:28.906Z,1.72
2019-03-03T17:07:00.393Z,1.67
2019-03-03T17:09:31.884Z,1.66
2019-03-03T17:12:04.693Z,1.64
2019-03-03T17:14:36.054Z,1.61
2019-03-03T17:17:07.391Z,1.63
2019-03-03T17:19:38.812Z,1.55
2019-03-03T17:22:10.420Z,1.50
2019-03-03T17:24:42.004Z,1.50
2019-03-03T17:27:13.208Z,1.49
2019-03-03T17:29:46.607Z,1.50
2019-03-03T17:32:18.862Z,1.45
2019-03-03T17:34:50.087Z,1.40
2019-03-03T17:37:21.265Z,1.45
2019-03-03T17:39:52.557Z,1.43
2019-03-03T17:42:23.840Z,1.43
2019-03-03T17:44:55.067Z,1.43
2019-03-03T17:47:26.211Z,1.41
2019-03-03T17:49:59.131Z,1.39
2019-03-03T17:52:35.753Z,1.31
2019-03-03T17:55:07.546Z,1.34
2019-03-03T17:57:38.734Z,1.28
2019-03-03T18:00:19.954Z,1.29
2019-03-03T18:02:58.759Z,1.24
2019-03-03T18:05:30.095Z,1.23
2019-03-03T18:08:01.443Z,1.15
2019-03-03T18:10:33.558Z,1.11
2019-03-03T18:13:05.480Z,1.09
2019-03-03T18:15:36.748Z,1.03
2019-03-03T18:18:07.828Z,1.02
2019-03-03T18:20:40.680Z,0.85
2019-03-03T18:23:11.715Z,0.83
2019-03-03T18:25:43.070Z,0.81
2019-03-03T18:28:15.559Z,0.80
2019-03-03T18:30:46.688Z,0.73
2019-03-03T18:33:17.783Z,0.70
2019-03-03T18:35:48.963Z,0.70
2019-03-03T18:38:20.095Z,0.70
2019-03-03T18:40:51.276Z,0.69
2019-03-03T18:43:22.536Z,0.72
2019-03-03T18:45:53.927Z,0.69
2019-03-03T18:48:25.329Z,0.71
2019-03-03T18:50:56.521Z,0.60
2019-03-03T18:53:28.563Z,0.58
2019-03-03T18:55:59.868Z,0.55
2019-03-03T18:58:31.159Z,0.57
2019-03-03T19:01:02.424Z,0.58
2019-03-03T19:03:33.547Z,0.59
2019-03-03T19:06:04.739Z,0.61
2019-03-03T19:08:36.059Z,0.65
2019-03-03T19:11:07.275Z,0.65
2019-03-03T19:13:39.508Z,0.63
2019-03-03T19:16:10.753Z,0.60
2019-03-03T19:18:41.980Z,0.62
2019-03-03T19:21:13.086Z,0.57
2019-03-03T19:23:45.146Z,0.53
2019-03-03T19:26:16.473Z,0.48
2019-03-03T19:28:47.697Z,0.43
2019-03-03T19:31:20.865Z,0.36
2019-03-03T19:33:55.005Z,0.42
2019-03-03T19:36:26.155Z,0.38
2019-03-03T19:38:57.498Z,0.23
2019-03-03T19:41:28.751Z,0.26
2019-03-03T19:44:01.995Z,0.23
2019-03-03T19:46:33.347Z,0.22
2019-03-03T19:49:04.575Z,0.20
2019-03-03T19:51:35.731Z,0.24
2019-03-03T19:54:07.817Z,0.20
2019-03-03T19:56:39.319Z,0.08
2019-03-03T19:59:10.510Z,0.09
2019-03-03T20:01:41.698Z,0.09
2019-03-03T20:04:13.021Z,0.06
2019-03-03T20:06:44.449Z,0.08
2019-03-03T20:09:20.224Z,0.06
2019-03-03T20:11:51.696Z,0.06
2019-03-03T20:14:24.608Z,-0.01
2019-03-03T20:16:56.252Z,-0.08
2019-03-03T20:19:27.707Z,-0.16
2019-03-03T20:21:59.343Z,-0.22
2019-03-03T20:24:32.754Z,-0.25
2019-03-03T20:27:04.268Z,-0.38
2019-03-03T20:29:37.024Z,-0.31
2019-03-03T20:32:12.238Z,-0.34
2019-03-03T20:34:44.071Z,-0.39
2019-03-03T20:37:15.435Z,-0.42
2019-03-03T20:39:46.854Z,-0.41
2019-03-03T20:42:19.898Z,-0.50
2019-03-03T20:44:51.262Z,-0.48
2019-03-03T20:47:22.643Z,-0.65
2019-03-03T20:49:54.051Z,-0.68
2019-03-03T20:52:25.620Z,-0.63
2019-03-03T20:54:57.247Z,-0.65
2019-03-03T20:57:29.121Z,-0.64
2019-03-03T21:00:00.558Z,-0.65
2019-03-03T21:02:32.978Z,-0.68
2019-03-03T21:05:09.928Z,-0.72
2019-03-03T21:07:50.636Z,-0.68
2019-03-03T21:10:16.620Z,-0.66
2019-03-03T21:12:49.193Z,-0.65
2019-03-03T21:15:23.895Z,-0.63
2019-03-03T21:17:56.670Z,-0.67
2019-03-03T21:20:29.785Z,-0.71
2019-03-03T21:23:01.941Z,-0.69
2019-03-03T21:25:33.279Z,-0.65
2019-03-03T21:28:05.927Z,-0.63
2019-03-03T21:30:45.382Z,-0.61
2019-03-03T21:33:23.203Z,-0.62
2019-03-03T21:35:54.390Z,-0.69
2019-03-03T21:38:26.252Z,-0.71
2019-03-03T21:40:57.683Z,-0.70
2019-03-03T21:43:32.017Z,-0.70
2019-03-03T21:46:03.254Z,-0.69
2019-03-03T21:48:36.340Z,-0.64
2019-03-03T21:51:07.481Z,-0.68
2019-03-03T21:53:42.862Z,-0.64
2019-03-03T21:56:14.158Z,-0.61
2019-03-03T21:58:45.496Z,-0.59
2019-03-03T22:01:17.010Z,-0.58
2019-03-03T22:03:52.401Z,-0.64
2019-03-03T22:06:26.887Z,-0.61
2019-03-03T22:09:00.617Z,-0.64
2019-03-03T22:11:34.920Z,-0.62
2019-03-03T22:14:06.465Z,-0.62
2019-03-03T22:16:37.675Z,-0.63
2019-03-03T22:19:08.960Z,-0.67
2019-03-03T22:21:40.318Z,-0.68
2019-03-03T22:24:11.664Z,-0.69
2019-03-03T22:26:43.478Z,-0.81
2019-03-03T22:29:19.397Z,-0.75
2019-03-03T22:31:50.903Z,-0.80
2019-03-03T22:34:22.210Z,-0.80
2019-03-03T22:36:53.784Z,-0.89
2019-03-03T22:39:25.441Z,-0.81
2019-03-03T22:41:58.216Z,-0.89
2019-03-03T22:44:29.575Z,-0.83
2019-03-03T22:47:03.785Z,-0.84
2019-03-03T22:49:35.212Z,-0.87
2019-03-03T22:52:06.438Z,-0.93
2019-03-03T22:54:42.146Z,-0.92
2019-03-03T22:57:22.009Z,-0.92
2019-03-03T22:59:56.255Z,-0.97
2019-03-03T23:02:27.585Z,-0.97
2019-03-03T23:05:21.465Z,-0.99
2019-03-03T23:07:56.207Z,-1.01
2019-03-03T23:10:41.276Z,-1.03
2019-03-03T23:13:24.794Z,-1.04
2019-03-03T23:16:32.689Z,-1.04
2019-03-03T23:19:19.173Z,-1.03
2019-03-03T23:22:12.715Z,-1.08
2019-03-03T23:25:05.282Z,-1.04
2019-03-03T23:27:36.482Z,-1.05
2019-03-03T23:30:08.881Z,-1.03
2019-03-03T23:32:40.112Z,-1.05
2019-03-03T23:35:11.363Z,-1.04
2019-03-03T23:37:42.632Z,-1.07
2019-03-03T23:40:15.059Z,-1.12
2019-03-03T23:42:46.318Z,-1.12
2019-03-03T23:45:17.469Z,-1.19
2019-03-03T23:47:48.587Z,-1.22
2019-03-03T23:50:20.774Z,-1.22
2019-03-03T23:52:51.823Z,-1.27
2019-03-03T23:55:22.936Z,-1.27
2019-03-03T23:57:54.182Z,-1.28
